ZBAA/PEK METAR and TAF weather

Enter ICAO airport designator
Station Type Date Time Source
ZBAA METAR 2019/07/15 20:00 UTC NOAA

ZBAA 152000Z 09002MPS CAVOK 25/21 Q1007 NOSIG


Station Type Date Time Source
ZBAA Decoded METAR 2019/07/15 20:00 UTC NOAA

Beijing, China (ZBAA) 39-56N 116-17E 55M
Jul 15, 2019 - 04:00 PM EDT / 2019.07.15 2000 UTC
Wind: from the E (090 degrees) at 4 MPH (4 KT):0
Visibility: greater than 7 mile(s):0
Temperature: 77 F (25 C)
Dew Point: 69 F (21 C)
Relative Humidity: 78%
Pressure (altimeter): 29.74 in. Hg (1007 hPa)
ob: ZBAA 152000Z 09002MPS CAVOK 25/21 Q1007 NOSIG
cycle: 20

Station Type Date Time Source
ZBAA TAF 2019/07/15 18:06 UTC NOAA

TAF TAF ZBAA 151530Z 1518/1618 17004MPS 6000 NSC TX35/1607Z TN23/1521Z
TEMPO 1611/1616 -TSRA FEW040CB BKN040

Example: see airport list